Private Wetterstation Grnau im Almtal
www.gruenau.tv

Wetterdaten: aktuell Sonntag, 18.11.2018 14:10
Datum Zeit Temperatur Temp. min Temp. max Luftfeuchte Luftdruck Regen Wind Richtung Richtung Sonne ET UV Solar Taupunkt Windchill Windben
18.11.2018 14:10 3,5 C 3,4 C 3,5 C 73 % 1022,8 hPa 0,0 l/m 10,5 km/h (2 Bft) N 352 60 min 0,127 mm 0,0 UV-I 207 W/m -0,9 C 0,1 C 16,1 km/h (3 Bft)
18.11.2018 13:10 3,1 C 3,1 C 3,2 C 74 % 1023,8 hPa 0,0 l/m 8,3 km/h (2 Bft) N-NW 337 60 min 0,127 mm 0,7 UV-I 301 W/m -1,1 C 1,3 C 12,9 km/h (3 Bft)
18.11.2018 12:10 1,9 C 1,8 C 1,9 C 77 % 1024,4 hPa 0,0 l/m 6,4 km/h (2 Bft) N-NO 14 60 min 0,127 mm 0,7 UV-I 225 W/m -1,7 C 1,9 C 14,5 km/h (3 Bft)
18.11.2018 11:10 0,7 C 0,5 C 0,7 C 83 % 1025,0 hPa 0,0 l/m 9,5 km/h (2 Bft) NW 317 60 min 0,102 mm 0,8 UV-I 338 W/m -1,8 C -2,3 C 16,1 km/h (3 Bft)
18.11.2018 10:10 -0,7 C -0,9 C -0,7 C 88 % 1025,8 hPa 0,4 l/m 1,7 km/h (1 Bft) S-SW 205 60 min 0,001 mm 0,6 UV-I 299 W/m -2,4 C -0,7 C 4,8 km/h (1 Bft)
18.11.2018 09:10 -3,2 C -3,7 C -3,2 C 89 % 1026,7 hPa 0,0 l/m 0,1 km/h (0 Bft) SO 142 20 min 0,025 mm 0,0 UV-I 225 W/m -4,7 C -3,2 C 1,6 km/h (1 Bft)
18.11.2018 08:10 -4,6 C -4,6 C -4,5 C 89 % 1027,1 hPa 0,0 l/m 0,5 km/h (0 Bft) SO 142 0 min 0,000 mm 0,0 UV-I 18 W/m -6,1 C -4,6 C 3,2 km/h (1 Bft)
18.11.2018 07:10 -3,8 C -3,8 C -3,7 C 89 % 1026,9 hPa 0,0 l/m 5,3 km/h (1 Bft) S-SO 157 0 min 0,000 mm 0,0 UV-I 0 W/m -5,3 C -3,8 C 12,9 km/h (3 Bft)
18.11.2018 06:10 -4,8 C -4,8 C -4,7 C 89 % 1027,3 hPa 0,0 l/m 1,0 km/h (0 Bft) O-SO 116 0 min 0,000 mm 0,0 UV-I 0 W/m -6,3 C -4,8 C 3,2 km/h (1 Bft)
18.11.2018 05:10 -4,2 C -4,2 C -4,1 C 89 % 1027,6 hPa 0,0 l/m 0,9 km/h (0 Bft) O-NO 76 0 min 0,000 mm 0,0 UV-I 0 W/m -5,7 C -4,2 C 3,2 km/h (1 Bft)
18.11.2018 04:10 -3,7 C -3,7 C -3,7 C 89 % 1027,9 hPa 0,0 l/m 1,4 km/h (1 Bft) SO 127 0 min 0,000 mm 0,0 UV-I 0 W/m -5,2 C -3,7 C 3,2 km/h (1 Bft)
18.11.2018 03:10 -3,6 C -3,6 C -3,5 C 89 % 1028,9 hPa 0,0 l/m 1,6 km/h (1 Bft) O-NO 61 0 min 0,000 mm 0,0 UV-I 0 W/m -5,1 C -3,6 C 4,8 km/h (1 Bft)
18.11.2018 02:10 -3,2 C -3,4 C -3,2 C 89 % 1029,0 hPa 0,0 l/m 5,7 km/h (1 Bft) SO 137 0 min 0,000 mm 0,0 UV-I 0 W/m -4,7 C -3,2 C 12,9 km/h (3 Bft)
18.11.2018 01:10 -3,1 C -3,1 C -2,9 C 89 % 1029,5 hPa 0,0 l/m 1,4 km/h (1 Bft) O-NO 69 0 min 0,000 mm 0,0 UV-I 0 W/m -4,6 C -3,1 C 6,4 km/h (2 Bft)
18.11.2018 00:10 -3,1 C -3,1 C -3,0 C 89 % 1029,3 hPa 0,0 l/m 2,2 km/h (1 Bft) S-SO 147 0 min 0,000 mm 0,0 UV-I 0 W/m -4,6 C -3,1 C 3,2 km/h (1 Bft)
17.11.2018 23:10 -2,8 C -2,8 C -2,8 C 89 % 1029,7 hPa 0,0 l/m 0,5 km/h (0 Bft) S-SW 209 0 min 0,000 mm 0,0 UV-I 0 W/m -4,4 C -2,8 C 3,2 km/h (1 Bft)
17.11.2018 22:10 -2,2 C -2,2 C -2,1 C 89 % 1029,4 hPa 0,0 l/m 2,6 km/h (1 Bft) O 95 0 min 0,000 mm 0,0 UV-I 0 W/m -3,8 C -2,2 C 8,0 km/h (2 Bft)
17.11.2018 21:10 -2,0 C -2,0 C -1,9 C 89 % 1029,8 hPa 0,0 l/m 3,4 km/h (1 Bft) O-SO 121 0 min 0,000 mm 0,0 UV-I 0 W/m -3,6 C -2,0 C 6,4 km/h (2 Bft)
17.11.2018 20:10 -1,6 C -1,7 C -1,6 C 88 % 1029,8 hPa 0,0 l/m 4,0 km/h (1 Bft) O 91 0 min 0,000 mm 0,0 UV-I 0 W/m -3,3 C -1,6 C 8,0 km/h (2 Bft)
17.11.2018 19:10 -1,3 C -1,3 C -1,3 C 88 % 1030,0 hPa 0,0 l/m 0,0 km/h (0 Bft) O 97 0 min 0,000 mm 0,0 UV-I 0 W/m -3,0 C -1,3 C 0,0 km/h (0 Bft)
17.11.2018 18:10 -0,6 C -0,6 C -0,5 C 87 % 1030,1 hPa 0,0 l/m 0,1 km/h (0 Bft) O 91 0 min 0,000 mm 0,0 UV-I 0 W/m -2,5 C -0,6 C 1,6 km/h (1 Bft)
17.11.2018 17:10 1,3 C 1,3 C 1,4 C 82 % 1029,7 hPa 0,0 l/m 1,3 km/h (1 Bft) N 7 0 min 0,000 mm 0,0 UV-I 0 W/m -1,4 C 1,3 C 3,2 km/h (1 Bft)
17.11.2018 16:10 2,5 C 2,5 C 2,6 C 80 % 1029,4 hPa 0,0 l/m 8,1 km/h (2 Bft) N 353 5 min 0,001 mm 0,0 UV-I 11 W/m -0,6 C 0,9 C 14,5 km/h (3 Bft)
17.11.2018 15:10 3,3 C 3,3 C 3,5 C 79 % 1029,1 hPa 0,0 l/m 15,6 km/h (3 Bft) N 351 0 min 0,076 mm 0,0 UV-I 37 W/m 0,0 C -3,3 C 22,5 km/h (4 Bft)
17.11.2018 15:00 3,6 C 3,6 C 4,4 C 79 % 1028,9 hPa 0,0 l/m 17,7 km/h (3 Bft) NW 315 0 min 0,076 mm 0,0 UV-I 162 W/m 0,3 C -4,0 C 35,4 km/h (5 Bft)
_ Min-Zeit 06:10 06:10 06:15 14:00 14:10 - 18:45 - - - - - - 06:10 04:25 18:45
Minimum _ -4,8 C -4,8 C -4,8 C 73 % 1022,8 hPa - 0,0 km/h (0 Bft) - - - - - - -6,3 C -5,6 C 0,0 km/h (0 Bft)
_ Max-Zeit 15:00 15:00 15:00 19:55 18:05 09:50 15:00 - - 15:00 12:00 11:30 12:00 15:00 13:30 15:00
Maximum _ 4,4 C 3,6 C 4,4 C 89 % 1030,1 hPa 0,2 l/m 17,7 km/h
NW (3 Bft)
- - 5 min 0,127 mm 0,9 UV-I 350 W/m 0,3 C 2,9 C 35,4 km/h
NW (5 Bft)
Durchschnitt _ -1,1 C -1,2 C -0,9 C 86 % 1028,0 hPa #0,4 l/m 4,5 km/h (1 Bft) SO - #5:20 h #0,585 mm 0,7 UV-I 233 W/m -3,2 C -2,2 C 9,3 km/h (2 Bft)
Rauscher Max - www.gruenau.tv